View Sortable Currents For Network
ASOSAWOSCoCoRaHSCOOPDCPISU Soil Moisture
OtherSCANMy FavoritesBy StateRWISRWIS Surface
RWIS TrafficRWIS SoilBy NWS WFOUSCRN
Select Network:
Include METARS:
Sort Order: Format:

Times shown are for timezone: America/Chicago. The local day summary is based on that timezone.
Table sorted by: (Observation Time)     Click on a column to sort it. Click on site ID for more information. You can download data from this network here and you can view daily summaries on this network.
ADD: ID Station Ob Time Present Wx Temps °F   Wind [knots] Precip Clouds
Air Hi Lo Dewp Feels RH % Alti Vsby Speed Drct Gust @ Time 1 Hour Today Level 1 Level 2 Level 3 Level 4
HZLHazelton01:57 AM596159 57 M 93.74054 30.18 10 0N0 CLR
FKLFRANKLIN(AWOS)01:56 AM595959 58 M 96.13254 30.17 10 0N4 @ 12:10 AM0 CLR
UCPNew Castle01:56 AM606260 59 M 96.15043 30.15 10 0N2 @ 12:35 AM0 CLR
MUIMUIR AAF/INDIANTOWN01:56 AM646764 60 M 87.1461 30.09 10 0N0 CLR
BTPBUTLER CO. (AWOS)01:56 AM616361 58 M 89.52252 30.15 10 0N2 @ 12:00 AM0 CLR
AFJWASHINGTON (AWOS)01:56 AM616261 60 M 96.85247 30.17 10 0N2 @ 12:05 AM0 CLR
CXYHARRISBURG/CAPITAL01:56 AM676867 59 M 75.73877 30.09 10 3WSW5 @ 12:05 AM0 CLR
MDTMIDDLETOWN/OLMSTED01:56 AM707270 63 M 78.46361 30.08 10 4N4 @ 01:56 AM0 FEW 7000 SCT 25000
OQNWest Chester01:55 AM707270 63 M 77.89702 30.09 10 0N0 CLR
HMZBedford01:55 AM596059 58 M 97.168015 30.15 10 0N0 CLR
RVLReedsville01:55 AM646663 61 M 88.09003 30.12 10 0N0 CLR
BVIBEAVER FALLS ARPT01:55 AM676967 58 M 72.8096 30.15 10 0N0 CLR
MQSCoatesville01:55 AM667066 59 M 77.59766 30.11 10 0N4 @ 12:15 AM0 CLR
N38Wellsboro01:55 AM616361 59 M 93.78725 30.17 10 0N0 CLR
UKTQUAKERTOWN_ARPT01:55 AM646664 64 M 100 30.09 10 0N0 CLR
XLLAllentown01:55 AM687066 64 M 88.259766 30.11 10 0N0 CLR
CKZPerkasie01:55 AM636463 63 M 100 30.1 10 0N0 CLR
LOMPHILADELPHIA/WINGS FIELD01:55 AM656665 64 M 97.24227 30.08 10 0N0.01 0.01 CLR
2G9Somerset01:55 AM575955 54 M 87.7396 30.19 10 0N0 CLR
IDIINDIANA/STEWART FLD01:55 AM616361 59 M 93.78725 30.18 10 0N0 CLR
LBELATROBE/WESTMORLAND01:55 AM616461 63 M M 30.14 10 0N0 CLR
PHLPHILADELPHIA INTL01:54 AM767776 61 M 59.922417 30.06 10 4W5 @ 01:05 AM0 CLR
AVPWILKES-BARRE/SCRANT01:54 AM666766 60 M 81.26655 30.12 10 4ESE6 @ 12:54 AM0 CLR
RDGREADING/SPAATZ FLD01:54 AM697269 66 M 89.85901 30.08 10 3NW4 @ 01:00 AM0 CLR
PNEPHILADELPHIA NE01:54 AM737372 64 M 73.4019 30.08 10 0N4 @ 12:25 AM0 CLR
PTWPOTTSTOWN LIMERICK AIRPORT01:54 AM646664 62 M 93.53832 30.1 10 0N0 CLR
DYLDOYLESTOWN AIRPORT01:54 AM707069 62 M 76.01463 30.07 10 0N0 CLR
JSTJOHNSTOWN/CAMBRIA01:54 AM666665 54 M 65.21411 30.18 10 3WSW3 @ 12:54 AM0 CLR
FIGCLEARFIELD-LAWRENCE APT(WAS N97)01:54 AM616261 57 M 86.66759 30.16 10 0N2 @ 12:05 AM0 CLR
IPTWILLIAMSPORT01:54 AM656865 61 M 87.18186 30.11 10 0N4 @ 12:25 AMT T CLR
OYMSt Marys01:53 AM575957 57 M 100 30.2 10 0N0 CLR
MPOMT POCONO01:53 AM636463 57 M 80.7574 30.15 10 5NNW7 @ 12:00 AM0 CLR
SEGSELINSGROVE01:53 AM646464 61 M 89.96762 30.11 10 3N3 @ 01:53 AM0 CLR
DUJDU BOIS (AWOS)01:53 AM626362 55 M 77.531395 30.16 10 0N2 @ 12:40 AM0 CLR
LNSLANCASTER01:53 AM697069 62 M 78.390976 30.09 10 0N5 @ 01:20 AM0 CLR
AOOALTOONA/BLAIR CO.01:53 AM616161 55 M 80.60851 30.15 10 0N3 @ 12:53 AM0 CLR
GKJMEADVILLE01:53 AM626262 57 M 83.35917 30.15 10 0N2 @ 12:05 AM0 CLR
BFDBRADFORD REGIONAL01:53 AM585856 54 M 86.81767 30.18 10 0N4 @ 12:50 AM0 CLR
AGCPITTSBURGH/ALLEGHEN01:53 AM697169 58 M 67.49865 30.13 10 3NE3 @ 12:53 AM0 CLR
ABEALLENTOWN-BETHLEHEM01:51 AM686868 61 M 78.301735 30.08 10 3S5 @ 12:30 AM0 CLR
PITPITTSBURGH INTL01:51 AM707070 57 M 63.365166 30.13 10 0N0 FEW 6000 SCT 25000
ERIERIE INTL AIRPORT01:51 AM656565 57 M 75.55841 30.13 10 6SSE6 @ 01:51 AM0 CLR
22NLehighton01:44 AM616361 61 M 100 30.11 10 0N0 CLR
THVTHOMASVILLE/YORK14 Jul 10:53 PMSite Offline
UNVSTATE COLLEGE14 Jul 09:53 PMSite Offline